»·PEaware :: N5GL KSAN-KVNY

N5GL :: KSAN-KVNY

FLIGHT INFORMATION

Flight Status: Arrived
Operator: Privately registered:
United States
More flights under this callsign
Pilot: Georg L. (13308)
Aircraft: SOCATA TBM-900
(TBM9)
More flights by this aircraft type
Origin: KSAN San Diego Intl-Lindbergh
United States
Destination: KVNY Van Nuys
United States
More flights between these airports :: More routes between these airports
Route: +CWARD2 LAX CANOG
File this flight plan on PilotEdge
Remarks:
Altitude:
(Current/Filed)
20,000ft
Speed:
(Current/Filed)
304kts
Departed: 28-Sep-20 11:30 AM
Arrived: 28-Sep-20 12:11 PM
Distance/Time
Traveled:
110nm/0:40
Distance/Time
To Go:
Arrived

Flight Plot

Page will automatically refresh every two minutes.

Flight plan parsing failed; only flown route is shown


Map Options




Map Legend


Flown Route
Filed Route
Departure Airport
Arrival Airport
Navaid (VOR, NDB)
Fix

Horizontal Profiles

Position Reports

Time Latitude Longitude Heading Altitude Ground
Speed
28-Sep-20 11:14 32.733197 -117.178492 314 20ft 0kts
28-Sep-20 11:15 32.733197 -117.178492 314 20ft 0kts
28-Sep-20 11:16 32.733197 -117.178492 314 20ft 0kts
28-Sep-20 11:17 32.733197 -117.178492 314 20ft 0kts
28-Sep-20 11:18 32.733197 -117.178492 314 20ft 0kts
28-Sep-20 11:19 32.733197 -117.178492 314 20ft 0kts
28-Sep-20 11:20 32.733197 -117.178492 314 20ft 0kts
28-Sep-20 11:21 32.733197 -117.178492 314 20ft 0kts
28-Sep-20 11:23 32.733197 -117.178492 314 20ft 0kts
28-Sep-20 11:24 32.733197 -117.178492 314 20ft 0kts
28-Sep-20 11:25 32.733197 -117.178492 314 20ft 0kts
28-Sep-20 11:26 32.733499 -117.178987 308 20ft 7kts
28-Sep-20 11:27 32.732143 -117.179108 105 20ft 12kts
28-Sep-20 11:28 32.730925 -117.175480 147 20ft 0kts
28-Sep-20 11:29 32.730435 -117.175211 188 20ft 13kts
28-Sep-20 11:30 32.736884 -117.197895 294 959ft 118kts
28-Sep-20 11:31 32.756424 -117.234785 300 3339ft 135kts
28-Sep-20 11:32 32.776345 -117.273644 300 5755ft 146kts
28-Sep-20 11:33 32.797837 -117.315545 303 8000ft 164kts
28-Sep-20 11:34 32.834843 -117.373025 307 8017ft 251kts
28-Sep-20 11:35 32.879133 -117.441784 307 8003ft 267kts
28-Sep-20 11:36 32.924599 -117.512481 307 8001ft 269kts
28-Sep-20 11:37 32.970298 -117.583681 307 8001ft 270kts
28-Sep-20 11:38 33.015864 -117.654808 306 7995ft 270kts
28-Sep-20 11:38 33.053909 -117.714280 306 7990ft 270kts
28-Sep-20 11:40 33.118188 -117.784872 320 7981ft 269kts
28-Sep-20 11:41 33.175196 -117.842910 320 7981ft 269kts
28-Sep-20 11:41 33.230646 -117.871327 350 7992ft 265kts
28-Sep-20 11:43 33.314964 -117.892081 349 8015ft 265kts
28-Sep-20 11:44 33.387173 -117.912110 331 7764ft 276kts
28-Sep-20 11:44 33.438482 -117.960660 322 6957ft 285kts
28-Sep-20 11:45 33.500648 -118.019582 323 6044ft 282kts
28-Sep-20 11:46 33.560152 -118.075996 323 6032ft 267kts
28-Sep-20 11:47 33.618025 -118.130967 323 6018ft 265kts
28-Sep-20 11:48 33.675910 -118.186048 323 6018ft 263kts
28-Sep-20 11:49 33.733033 -118.240499 323 6018ft 261kts
28-Sep-20 11:50 33.789881 -118.294783 323 6019ft 260kts
28-Sep-20 11:51 33.846716 -118.349151 323 6019ft 260kts
28-Sep-20 11:52 33.903489 -118.403548 323 6000ft 261kts
28-Sep-20 11:53 33.960062 -118.458506 322 6001ft 261kts
28-Sep-20 11:54 34.017685 -118.515870 322 5363ft 269kts
28-Sep-20 11:55 34.074524 -118.572380 322 4998ft 256kts
28-Sep-20 11:56 34.131400 -118.622668 351 5012ft 251kts
28-Sep-20 11:57 34.200259 -118.637432 352 5090ft 251kts
28-Sep-20 11:58 34.269190 -118.652421 351 4999ft 254kts
28-Sep-20 11:59 34.338503 -118.667074 351 4998ft 251kts
28-Sep-20 12:00 34.407040 -118.681512 351 4999ft 250kts
28-Sep-20 12:01 34.466514 -118.669122 70 4980ft 210kts
28-Sep-20 12:02 34.484160 -118.605059 71 4999ft 198kts
28-Sep-20 12:03 34.498443 -118.541024 106 4975ft 199kts
28-Sep-20 12:04 34.449871 -118.511933 175 5000ft 206kts
28-Sep-20 12:05 34.395087 -118.507891 173 4885ft 181kts
28-Sep-20 12:06 34.345413 -118.503220 173 3843ft 170kts
28-Sep-20 12:07 34.298508 -118.498759 174 2707ft 168kts
28-Sep-20 12:08 34.254222 -118.494560 173 1700ft 133kts
28-Sep-20 12:09 34.223845 -118.491697 172 1004ft 86kts
28-Sep-20 12:10 34.206647 -118.490186 246 778ft 9kts
28-Sep-20 12:11 34.206940 -118.491259 357 778ft 0kts
28-Sep-20 12:12 34.211870 -118.491726 355 778ft 20kts
28-Sep-20 12:13 34.216788 -118.492631 280 778ft 12kts
28-Sep-20 12:14 34.216679 -118.497360 224 778ft 8kts
28-Sep-20 12:15 34.215719 -118.498164 263 778ft 2kts
28-Sep-20 12:16 34.215712 -118.498309 269 778ft 0kts
28-Sep-20 12:17 34.215712 -118.498309 269 778ft 0kts
28-Sep-20 12:18 34.215712 -118.498308 270 778ft 0kts
28-Sep-20 12:19 34.215712 -118.498308 270 778ft 0kts

Navigation Log

Ident Type
Flight plan parsing failed, navigation log unavailable